Time;durP1;ratioP1;P1;durP2;ratioP2;P2;SDS_P1;SDS_P2;PMS_P1;PMS_P2;Temp;Humidity;BMP_temperature;BMP_pressure;BME280_temperature;BME280_humidity;BME280_pressure;Samples;Min_cycle;Max_cycle;Signal;HPM_P1;HPM_P2
2022/05/04 00:02:18;;;;;;;13.70;9.77;;;11.80;92.90;;;;;;5050958;28;20548;-78
2022/05/04 00:04:44;;;;;;;14.63;8.63;;;11.70;92.90;;;;;;5047929;28;20195;-77
2022/05/04 00:07:10;;;;;;;13.50;8.87;;;11.70;92.90;;;;;;5050683;28;20200;-78
2022/05/04 00:09:35;;;;;;;13.47;8.40;;;11.70;92.80;;;;;;5051110;28;20192;-77
2022/05/04 00:12:01;;;;;;;13.97;8.67;;;11.70;92.70;;;;;;5050955;28;20203;-76
2022/05/04 00:14:27;;;;;;;15.60;9.07;;;11.60;92.80;;;;;;5049725;28;20196;-78
2022/05/04 00:16:53;;;;;;;15.03;8.87;;;11.60;92.80;;;;;;5049406;28;20180;-75
2022/05/04 00:19:18;;;;;;;16.40;9.37;;;11.50;93.00;;;;;;5049921;28;20445;-76
2022/05/04 00:21:44;;;;;;;13.30;8.27;;;11.60;92.90;;;;;;5049925;28;20204;-76
2022/05/04 00:24:10;;;;;;;14.07;8.50;;;11.60;93.00;;;;;;5050202;28;20182;-77
2022/05/04 00:26:36;;;;;;;17.30;9.20;;;11.50;93.10;;;;;;5049841;28;20203;-76
2022/05/04 00:29:01;;;;;;;13.27;8.67;;;11.50;93.10;;;;;;5050942;28;20266;-77
2022/05/04 00:31:27;;;;;;;16.17;9.17;;;11.50;93.10;;;;;;5048845;28;20595;-76
2022/05/04 00:33:53;;;;;;;18.97;8.40;;;11.40;93.00;;;;;;5050007;28;20181;-76
2022/05/04 00:36:18;;;;;;;14.70;9.53;;;11.40;93.20;;;;;;5050486;28;20208;-77
2022/05/04 00:38:44;;;;;;;16.53;9.80;;;11.20;93.30;;;;;;5050460;28;20651;-77
2022/05/04 00:41:10;;;;;;;12.40;8.40;;;11.10;93.60;;;;;;5049864;28;20271;-76
2022/05/04 00:43:36;;;;;;;15.47;9.93;;;11.10;93.80;;;;;;5050595;28;20681;-76
2022/05/04 00:46:01;;;;;;;15.77;10.20;;;11.10;93.80;;;;;;5050299;28;20785;-77
2022/05/04 00:48:27;;;;;;;15.30;9.57;;;11.10;93.90;;;;;;5050447;28;20548;-76
2022/05/04 00:50:55;;;;;;;12.30;8.73;;;11.00;93.90;;;;;;5049582;28;20580;-76
2022/05/04 00:53:22;;;;;;;18.60;10.30;;;10.90;93.90;;;;;;5051217;28;20204;-76
2022/05/04 00:55:49;;;;;;;14.30;9.70;;;10.90;93.90;;;;;;5049575;28;20454;-76
2022/05/04 01:01:01;;;;;;;18.17;9.30;;;10.90;94.00;;;;;;5051481;28;21002;-77
2022/05/04 01:03:27;;;;;;;16.60;9.37;;;10.80;93.90;;;;;;5051713;28;20778;-76
2022/05/04 01:05:53;;;;;;;14.20;9.47;;;10.90;93.90;;;;;;5051214;28;20430;-77
2022/05/04 01:08:19;;;;;;;15.37;8.60;;;10.90;93.90;;;;;;5051658;28;20185;-77
2022/05/04 01:10:44;;;;;;;15.53;9.07;;;11.00;94.00;;;;;;5062041;28;20231;-77
2022/05/04 01:13:10;;;;;;;17.00;10.40;;;11.00;93.80;;;;;;5055767;28;20188;-76
2022/05/04 01:15:36;;;;;;;17.37;10.50;;;11.00;93.80;;;;;;5054667;28;20223;-75
2022/05/04 01:18:02;;;;;;;21.53;10.10;;;11.00;93.90;;;;;;5056162;28;20749;-75
2022/05/04 01:20:27;;;;;;;22.23;10.07;;;11.10;93.90;;;;;;5063835;28;20576;-74
2022/05/04 01:22:54;;;;;;;17.80;9.53;;;11.20;93.70;;;;;;5057408;28;21039;-75
2022/05/04 01:25:20;;;;;;;15.50;9.73;;;11.20;93.70;;;;;;5057261;28;20596;-76
2022/05/04 01:27:45;;;;;;;16.57;9.60;;;11.20;93.60;;;;;;5056484;28;20518;-75
2022/05/04 01:30:12;;;;;;;12.43;8.40;;;11.20;93.60;;;;;;5055728;28;20454;-77
2022/05/04 01:32:39;;;;;;;15.47;9.27;;;11.30;93.50;;;;;;5058798;28;20177;-75
2022/05/04 01:35:05;;;;;;;15.50;9.40;;;11.20;93.30;;;;;;5060008;28;20561;-77
2022/05/04 01:37:31;;;;;;;13.80;10.13;;;11.20;93.10;;;;;;5056750;28;20505;-77
2022/05/04 01:39:57;;;;;;;11.37;8.00;;;11.10;92.90;;;;;;5060588;28;20829;-77
2022/05/04 01:42:24;;;;;;;13.90;9.07;;;11.00;92.90;;;;;;5061638;28;20589;-75
2022/05/04 01:44:51;;;;;;;15.63;9.57;;;11.00;92.90;;;;;;5060808;28;20213;-76
2022/05/04 01:47:17;;;;;;;13.60;9.00;;;11.00;93.00;;;;;;5061540;28;20502;-77
2022/05/04 01:49:43;;;;;;;13.97;8.40;;;10.90;93.10;;;;;;5060627;28;20462;-76
2022/05/04 01:52:08;;;;;;;14.83;9.90;;;11.00;93.40;;;;;;5060461;28;20191;-76
2022/05/04 01:54:34;;;;;;;16.80;9.93;;;11.00;93.30;;;;;;5059279;28;20466;-76
2022/05/04 01:57:00;;;;;;;15.47;9.10;;;11.00;93.10;;;;;;5060350;28;20204;-75
2022/05/04 01:59:25;;;;;;;14.03;10.40;;;11.00;93.00;;;;;;5061117;28;20204;-77
2022/05/04 02:01:52;;;;;;;16.30;9.70;;;11.10;92.90;;;;;;5058198;28;20188;-78
2022/05/04 02:04:18;;;;;;;16.10;10.30;;;11.10;93.00;;;;;;5053973;28;20177;-75
2022/05/04 02:06:45;;;;;;;18.60;10.80;;;11.10;93.20;;;;;;5053767;28;20521;-76
2022/05/04 02:09:11;;;;;;;14.83;9.77;;;11.20;93.30;;;;;;5053911;28;20532;-78
2022/05/04 02:11:37;;;;;;;15.50;9.20;;;11.30;93.40;;;;;;5056200;28;20902;-76
2022/05/04 02:14:04;;;;;;;16.10;10.37;;;11.30;93.20;;;;;;5053180;28;20423;-75
2022/05/04 02:16:30;;;;;;;16.90;9.67;;;11.30;92.80;;;;;;5052842;28;20521;-78
2022/05/04 02:18:56;;;;;;;13.47;8.90;;;11.30;92.50;;;;;;5052908;28;20418;-77
2022/05/04 02:21:22;;;;;;;14.03;8.63;;;11.30;92.50;;;;;;5051917;28;20419;-78
2022/05/04 02:23:48;;;;;;;15.53;9.20;;;11.40;92.30;;;;;;5053661;28;20427;-77
2022/05/04 02:26:14;;;;;;;18.00;10.20;;;11.40;92.20;;;;;;5053726;28;20828;-77
2022/05/04 02:28:40;;;;;;;14.77;8.60;;;11.40;92.20;;;;;;5053202;28;20189;-77
2022/05/04 02:31:05;;;;;;;14.80;8.80;;;11.40;92.20;;;;;;5053610;28;20449;-77
2022/05/04 02:33:31;;;;;;;14.70;8.77;;;11.30;92.10;;;;;;5053143;28;20330;-77
2022/05/04 02:38:41;;;;;;;14.13;9.27;;;11.20;92.70;;;;;;5051998;28;20254;-79
2022/05/04 02:41:07;;;;;;;18.17;9.90;;;11.30;92.90;;;;;;5054103;28;20666;-77
2022/05/04 02:43:33;;;;;;;16.33;9.40;;;11.40;92.80;;;;;;5052868;28;20436;-78
2022/05/04 02:46:15;;;;;;;15.63;9.90;;;11.40;92.30;;;;;;5052604;28;20183;-77
2022/05/04 02:48:41;;;;;;;16.50;9.97;;;11.30;91.90;;;;;;5052380;28;20442;-77
2022/05/04 02:51:07;;;;;;;15.13;9.97;;;11.20;91.90;;;;;;5052042;28;20825;-76
2022/05/04 02:53:33;;;;;;;14.97;9.63;;;11.10;92.10;;;;;;5052257;28;20211;-77
2022/05/04 02:55:59;;;;;;;13.00;9.20;;;11.10;92.30;;;;;;5051613;28;20469;-75
2022/05/04 02:58:25;;;;;;;14.40;9.33;;;11.10;92.50;;;;;;5050017;28;20419;-77
2022/05/04 03:00:51;;;;;;;13.33;8.80;;;11.10;92.60;;;;;;5050463;28;20204;-78
2022/05/04 03:03:16;;;;;;;14.23;9.40;;;11.20;92.60;;;;;;5050775;28;20220;-76
2022/05/04 03:05:42;;;;;;;14.33;9.17;;;11.20;92.40;;;;;;5051549;28;20222;-76
2022/05/04 03:08:08;;;;;;;13.17;8.83;;;11.20;92.60;;;;;;5051262;28;20836;-75
2022/05/04 03:11:54;;;;;;;15.50;9.40;;;11.20;92.80;;;;;;5051130;28;20215;-75
2022/05/04 03:13:19;;;;;;;15.83;9.10;;;11.30;92.70;;;;;;5050953;28;20200;-75
2022/05/04 03:15:45;;;;;;;14.60;9.13;;;11.30;92.70;;;;;;5050527;28;20500;-75
2022/05/04 03:18:11;;;;;;;13.53;9.63;;;11.40;92.70;;;;;;5051674;28;20264;-76
2022/05/04 03:20:36;;;;;;;15.83;9.20;;;11.40;92.50;;;;;;5052010;28;20255;-77
2022/05/04 03:23:02;;;;;;;16.47;10.40;;;11.40;92.30;;;;;;5052395;28;20230;-75
2022/05/04 03:25:28;;;;;;;14.83;9.70;;;11.40;91.90;;;;;;5052205;28;20769;-75
2022/05/04 03:27:53;;;;;;;16.40;10.80;;;11.40;91.80;;;;;;5051885;28;20225;-75
2022/05/04 03:30:19;;;;;;;16.23;9.70;;;11.30;91.90;;;;;;5053049;28;20280;-76
2022/05/04 03:32:45;;;;;;;16.50;9.83;;;11.30;92.10;;;;;;5051644;28;20184;-76
2022/05/04 03:35:11;;;;;;;14.47;9.57;;;11.30;92.30;;;;;;5052701;28;21038;-75
2022/05/04 03:37:37;;;;;;;15.33;10.50;;;11.30;92.50;;;;;;5052952;28;20812;-75
2022/05/04 03:40:03;;;;;;;15.80;10.53;;;11.30;92.50;;;;;;5059061;28;20454;-75
2022/05/04 03:42:29;;;;;;;15.20;10.27;;;11.30;92.50;;;;;;5053378;28;20613;-74
2022/05/04 03:44:56;;;;;;;14.70;10.03;;;11.30;92.50;;;;;;5055717;28;20435;-75
2022/05/04 03:47:21;;;;;;;16.03;10.20;;;11.30;92.50;;;;;;5052029;28;20275;-77
2022/05/04 03:49:47;;;;;;;17.87;11.60;;;11.30;92.50;;;;;;5048441;28;20547;-74
2022/05/04 03:52:13;;;;;;;13.33;9.83;;;11.40;92.50;;;;;;5050692;28;20964;-75
2022/05/04 03:54:38;;;;;;;15.60;10.73;;;11.40;92.50;;;;;;5050761;28;20589;-74
2022/05/04 03:57:05;;;;;;;19.30;10.03;;;11.50;92.50;;;;;;5049205;28;20192;-75
2022/05/04 03:59:31;;;;;;;16.73;10.50;;;11.50;92.30;;;;;;5050455;28;20238;-75
2022/05/04 04:01:57;;;;;;;15.10;9.57;;;11.60;92.10;;;;;;5051854;28;20450;-76
2022/05/04 04:04:23;;;;;;;15.23;9.93;;;11.60;92.10;;;;;;5052464;28;20191;-75
2022/05/04 04:06:48;;;;;;;13.63;9.60;;;11.60;92.00;;;;;;5050982;28;20505;-75
2022/05/04 04:09:14;;;;;;;16.63;10.20;;;11.70;91.90;;;;;;5052179;28;20204;-75
2022/05/04 04:11:40;;;;;;;16.23;10.83;;;11.70;91.70;;;;;;5053475;28;20212;-74
2022/05/04 04:14:06;;;;;;;14.27;10.00;;;11.70;91.80;;;;;;5054348;28;20184;-76
2022/05/04 04:16:31;;;;;;;16.00;9.60;;;11.60;91.80;;;;;;5053098;28;20212;-76
2022/05/04 04:18:57;;;;;;;17.50;11.90;;;11.70;91.80;;;;;;5057143;28;20184;-75
2022/05/04 04:24:08;;;;;;;13.83;9.40;;;11.70;91.80;;;;;;5050648;28;20242;-76
2022/05/04 04:26:36;;;;;;;13.40;9.37;;;11.70;92.00;;;;;;5056669;28;20419;-76
2022/05/04 04:29:02;;;;;;;15.33;9.80;;;11.80;92.00;;;;;;5054006;28;20458;-75
2022/05/04 04:31:27;;;;;;;14.67;10.27;;;11.90;91.90;;;;;;5052834;28;20447;-75
2022/05/04 04:33:53;;;;;;;15.10;9.77;;;12.00;91.50;;;;;;5049608;28;20233;-76
2022/05/04 04:36:19;;;;;;;12.20;9.10;;;12.10;91.20;;;;;;5050066;28;20215;-74
2022/05/04 04:38:45;;;;;;;15.70;10.00;;;12.10;91.20;;;;;;5051916;28;20183;-76
2022/05/04 04:41:10;;;;;;;17.17;9.97;;;12.20;91.20;;;;;;5050463;28;20193;-76
2022/05/04 04:43:36;;;;;;;13.27;9.33;;;12.20;91.00;;;;;;5052338;28;20185;-75
2022/05/04 04:46:02;;;;;;;13.40;9.00;;;12.30;90.80;;;;;;5051781;28;20319;-76
2022/05/04 04:48:28;;;;;;;13.90;9.73;;;12.30;90.80;;;;;;5057087;28;20191;-75
2022/05/04 04:50:54;;;;;;;18.30;10.37;;;12.30;90.80;;;;;;5055745;28;20447;-76
2022/05/04 04:53:19;;;;;;;15.20;10.07;;;12.30;90.80;;;;;;5058285;28;20223;-76
2022/05/04 04:55:45;;;;;;;15.00;9.47;;;12.30;90.80;;;;;;5058637;28;20216;-75
2022/05/04 04:58:12;;;;;;;16.07;10.10;;;12.40;90.90;;;;;;5052196;28;20564;-75
2022/05/04 05:00:38;;;;;;;15.77;8.47;;;12.50;90.90;;;;;;5052060;28;20446;-76
2022/05/04 05:03:04;;;;;;;16.23;9.63;;;12.50;90.80;;;;;;5052213;28;20434;-76
2022/05/04 05:05:29;;;;;;;18.13;9.33;;;12.60;90.60;;;;;;5052881;28;20234;-76
2022/05/04 05:07:55;;;;;;;13.00;9.30;;;12.70;90.50;;;;;;5044556;28;20897;-77
2022/05/04 05:10:21;;;;;;;15.53;9.80;;;12.70;90.40;;;;;;5053292;28;20221;-78
2022/05/04 05:12:50;;;;;;;15.20;9.53;;;12.70;90.50;;;;;;5053396;28;20711;-76
2022/05/04 05:18:01;;;;;;;18.87;10.43;;;12.80;90.60;;;;;;5052566;28;20453;-75
2022/05/04 05:20:27;;;;;;;12.20;9.30;;;12.90;90.60;;;;;;5052733;28;20472;-76
2022/05/04 05:22:53;;;;;;;16.87;10.57;;;12.90;90.50;;;;;;5052843;28;20506;-77
2022/05/04 05:25:19;;;;;;;15.90;10.30;;;13.00;90.50;;;;;;5053747;28;20498;-77
2022/05/04 05:27:44;;;;;;;17.43;10.30;;;13.10;90.30;;;;;;5055774;28;20189;-75
2022/05/04 05:30:12;;;;;;;15.47;10.53;;;13.00;90.00;;;;;;5055825;28;20216;-76
2022/05/04 05:32:39;;;;;;;14.93;10.10;;;13.00;90.10;;;;;;5056739;28;20195;-75
2022/05/04 05:35:06;;;;;;;14.63;10.37;;;13.10;89.90;;;;;;5056855;28;20584;-75
2022/05/04 05:37:32;;;;;;;16.00;9.80;;;13.00;89.60;;;;;;5055618;28;20423;-75
2022/05/04 05:39:57;;;;;;;17.93;10.73;;;13.10;89.70;;;;;;5057307;28;20441;-76
2022/05/04 05:42:28;;;;;;;17.90;9.40;;;13.20;89.20;;;;;;5059883;28;20212;-75
2022/05/04 05:44:54;;;;;;;14.43;9.20;;;13.30;88.90;;;;;;5058635;28;20223;-74
2022/05/04 05:47:20;;;;;;;12.90;8.20;;;13.40;88.40;;;;;;5059380;28;20426;-74
2022/05/04 05:49:46;;;;;;;13.50;9.43;;;13.50;88.30;;;;;;5059405;28;20993;-74
2022/05/04 05:52:11;;;;;;;18.40;9.23;;;13.60;88.00;;;;;;5062870;28;20219;-75
2022/05/04 05:54:37;;;;;;;14.77;10.10;;;13.70;87.40;;;;;;5061626;28;20231;-75
2022/05/04 05:57:03;;;;;;;13.83;9.17;;;13.80;86.90;;;;;;5063507;28;20208;-74
2022/05/04 05:59:29;;;;;;;14.73;9.80;;;13.90;86.20;;;;;;5057016;28;20215;-74
2022/05/04 06:01:55;;;;;;;19.43;9.83;;;14.00;85.70;;;;;;5057845;28;20415;-74
2022/05/04 06:04:20;;;;;;;17.50;10.10;;;14.10;85.90;;;;;;5061367;28;20196;-75
2022/05/04 06:06:46;;;;;;;15.57;9.70;;;14.20;85.50;;;;;;5057659;28;20195;-75
2022/05/04 06:09:12;;;;;;;19.30;10.03;;;14.40;84.40;;;;;;5055894;28;20202;-73
2022/05/04 06:11:38;;;;;;;15.50;9.90;;;14.40;84.10;;;;;;5056558;28;20937;-74
2022/05/04 06:14:04;;;;;;;12.83;9.27;;;14.50;84.10;;;;;;5055125;28;20216;-74
2022/05/04 06:16:29;;;;;;;15.60;10.20;;;14.60;83.40;;;;;;5055654;28;20214;-75
2022/05/04 06:18:55;;;;;;;17.60;8.90;;;14.70;82.80;;;;;;5054272;28;20213;-74
2022/05/04 06:21:21;;;;;;;14.27;8.30;;;14.80;82.70;;;;;;5055872;28;20255;-75
2022/05/04 06:23:47;;;;;;;13.40;7.60;;;14.90;80.60;;;;;;5058559;28;20201;-75
2022/05/04 06:26:13;;;;;;;12.20;8.97;;;14.90;80.50;;;;;;5058734;28;20212;-75
2022/05/04 06:28:39;;;;;;;16.07;8.63;;;15.00;79.60;;;;;;5056255;28;20186;-74
2022/05/04 06:34:07;;;;;;;10.57;8.13;;;15.00;79.60;;;;;;5055090;28;20654;-75
2022/05/04 06:36:33;;;;;;;10.80;8.73;;;15.00;79.70;;;;;;5053853;28;20995;-75
2022/05/04 06:38:59;;;;;;;12.50;8.87;;;15.10;79.70;;;;;;5052776;28;20429;-75
2022/05/04 06:41:25;;;;;;;12.00;8.53;;;15.10;80.30;;;;;;5051313;28;20421;-74
2022/05/04 06:43:51;;;;;;;14.57;9.00;;;15.20;80.00;;;;;;5051562;28;20186;-75
2022/05/04 06:46:17;;;;;;;15.07;7.40;;;15.20;79.60;;;;;;5050723;28;20245;-75
2022/05/04 06:48:42;;;;;;;12.77;8.53;;;15.10;79.70;;;;;;5050611;28;20436;-75
2022/05/04 06:51:08;;;;;;;20.53;8.80;;;15.10;80.30;;;;;;5051224;28;20215;-75
2022/05/04 06:53:34;;;;;;;19.87;9.37;;;15.20;80.60;;;;;;5050765;28;20578;-74
2022/05/04 06:56:00;;;;;;;14.37;9.13;;;15.20;80.50;;;;;;5049965;28;20456;-75
2022/05/04 06:58:26;;;;;;;17.50;9.60;;;15.10;80.30;;;;;;5048405;28;20519;-75
2022/05/04 07:00:52;;;;;;;11.93;8.10;;;15.00;80.90;;;;;;5050858;28;20205;-75
2022/05/04 07:03:19;;;;;;;14.13;8.37;;;14.90;81.70;;;;;;5051291;28;20704;-75
2022/05/04 07:05:45;;;;;;;18.90;10.23;;;15.00;81.90;;;;;;5049932;28;20190;-75
2022/05/04 07:08:11;;;;;;;15.97;9.37;;;14.80;81.80;;;;;;5049491;28;20442;-74
2022/05/04 07:10:36;;;;;;;16.00;7.97;;;14.70;82.70;;;;;;5049747;28;20213;-75
2022/05/04 07:13:02;;;;;;;12.03;8.53;;;14.60;82.10;;;;;;5050893;28;20189;-75
2022/05/04 07:15:28;;;;;;;14.43;8.47;;;14.70;82.10;;;;;;5050567;28;20220;-75
2022/05/04 07:17:54;;;;;;;12.60;8.10;;;14.70;82.10;;;;;;5050929;28;20185;-75
2022/05/04 07:20:20;;;;;;;11.13;7.77;;;14.50;80.90;;;;;;5050764;28;20219;-74
2022/05/04 07:22:46;;;;;;;10.57;7.53;;;14.70;81.20;;;;;;5050549;28;20419;-76
2022/05/04 07:25:12;;;;;;;9.27;6.90;;;14.70;81.10;;;;;;5053217;28;20659;-76
2022/05/04 07:27:37;;;;;;;11.87;7.10;;;14.80;80.60;;;;;;5048362;28;20192;-74
2022/05/04 07:30:04;;;;;;;8.40;6.47;;;14.70;79.60;;;;;;5048882;28;20215;-75
2022/05/04 07:32:30;;;;;;;11.20;7.70;;;14.80;79.30;;;;;;5050628;28;20193;-74
2022/05/04 07:34:55;;;;;;;10.40;6.83;;;14.70;79.20;;;;;;5051005;28;20468;-76
2022/05/04 07:37:21;;;;;;;10.77;7.10;;;14.70;79.90;;;;;;5050681;28;20189;-75
2022/05/04 07:42:31;;;;;;;9.63;6.93;;;14.70;80.50;;;;;;5051804;28;20198;-76
2022/05/04 07:45:05;;;;;;;8.90;6.70;;;14.90;80.20;;;;;;5051485;28;20430;-76
2022/05/04 07:47:32;;;;;;;10.60;7.50;;;14.90;79.90;;;;;;5052210;28;20205;-75
2022/05/04 07:49:59;;;;;;;13.03;6.80;;;14.90;80.50;;;;;;5061660;28;20443;-75
2022/05/04 07:52:25;;;;;;;14.33;7.07;;;14.90;80.30;;;;;;5065826;28;20427;-76
2022/05/04 07:54:52;;;;;;;12.63;7.47;;;15.10;80.20;;;;;;5052956;28;20561;-75
2022/05/04 07:57:19;;;;;;;10.47;7.10;;;15.00;79.70;;;;;;5048878;28;20424;-76
2022/05/04 08:04:16;;;;;;;12.90;6.83;;;15.00;80.00;;;;;;5049362;28;21008;-75
2022/05/04 08:05:15;;;;;;;10.87;7.20;;;15.50;79.50;;;;;;5048804;28;20430;-75
2022/05/04 08:07:41;;;;;;;11.63;7.40;;;15.70;78.10;;;;;;5050602;28;20432;-76
2022/05/04 08:10:07;;;;;;;11.73;6.43;;;15.70;77.60;;;;;;5049986;28;20213;-75
2022/05/04 08:12:33;;;;;;;17.60;7.40;;;15.80;77.30;;;;;;5051214;28;20210;-75
2022/05/04 08:14:59;;;;;;;9.40;6.50;;;15.80;77.40;;;;;;5050658;28;20464;-75
2022/05/04 08:17:25;;;;;;;7.33;5.83;;;16.00;76.10;;;;;;5051514;28;20423;-77
2022/05/04 08:19:52;;;;;;;10.87;6.53;;;16.00;75.90;;;;;;5051660;28;20446;-74
2022/05/04 08:22:18;;;;;;;9.37;6.47;;;16.10;75.20;;;;;;5050940;28;20957;-75
2022/05/04 08:24:43;;;;;;;11.23;7.10;;;16.00;75.40;;;;;;5051647;28;20452;-76
2022/05/04 08:27:09;;;;;;;13.93;6.53;;;16.10;75.50;;;;;;5053184;28;20441;-75
2022/05/04 08:29:35;;;;;;;11.97;7.10;;;16.10;76.10;;;;;;5050612;28;20829;-75
2022/05/04 08:32:01;;;;;;;10.30;6.20;;;16.00;76.20;;;;;;5049810;28;20217;-75
2022/05/04 08:34:26;;;;;;;10.40;6.63;;;15.70;76.10;;;;;;5048047;28;20594;-76
2022/05/04 08:36:52;;;;;;;10.63;6.77;;;15.70;77.00;;;;;;5047461;28;20185;-75
2022/05/04 08:39:18;;;;;;;8.77;5.60;;;15.70;77.30;;;;;;5049881;28;20288;-75
2022/05/04 08:41:44;;;;;;;11.87;6.90;;;15.70;77.00;;;;;;5048674;28;20195;-75
2022/05/04 08:44:12;;;;;;;11.03;6.37;;;15.60;77.00;;;;;;5050219;28;20422;-74
2022/05/04 08:46:42;;;;;;;7.80;5.30;;;15.50;77.40;;;;;;5048904;28;20199;-75
2022/05/04 08:49:11;;;;;;;11.30;7.10;;;15.30;77.60;;;;;;5049539;28;20892;-74
2022/05/04 08:51:37;;;;;;;11.77;7.37;;;15.40;78.60;;;;;;5049626;28;20787;-75
2022/05/04 08:54:05;;;;;;;9.93;6.43;;;15.30;80.50;;;;;;5049547;28;20492;-76
2022/05/04 08:56:31;;;;;;;8.90;6.60;;;15.30;81.70;;;;;;5049059;28;20474;-75
2022/05/04 08:58:57;;;;;;;11.47;7.17;;;15.20;82.20;;;;;;5046863;28;20421;-74
2022/05/04 09:01:26;;;;;;;9.77;6.30;;;15.10;83.30;;;;;;5049573;28;20474;-75
2022/05/04 09:03:52;;;;;;;8.60;6.37;;;15.00;84.60;;;;;;5049524;28;21075;-75
2022/05/04 09:06:28;;;;;;;11.60;6.93;;;14.90;85.20;;;;;;5049104;28;20520;-75
2022/05/04 09:09:10;;;;;;;13.00;7.80;;;14.90;86.30;;;;;;5048734;28;20418;-76
2022/05/04 09:11:41;;;;;;;13.43;7.80;;;14.90;87.60;;;;;;5049736;28;20431;-75
2022/05/04 09:14:12;;;;;;;13.30;8.27;;;15.00;89.20;;;;;;5049878;28;20424;-74
2022/05/04 09:16:39;;;;;;;10.03;6.83;;;15.00;89.90;;;;;;5049125;28;20471;-74
2022/05/04 09:19:07;;;;;;;15.17;7.30;;;14.90;89.50;;;;;;5050479;28;20553;-76
2022/05/04 09:21:33;;;;;;;14.00;7.43;;;14.70;89.30;;;;;;5053199;28;20427;-74
2022/05/04 09:23:59;;;;;;;11.80;7.17;;;14.70;89.70;;;;;;5053878;28;20446;-74
2022/05/04 09:26:25;;;;;;;12.13;7.47;;;14.70;89.00;;;;;;5050938;28;20460;-74
2022/05/04 09:29:04;;;;;;;14.63;7.73;;;14.80;88.60;;;;;;5051453;28;21132;-75
2022/05/04 09:31:33;;;;;;;17.00;7.20;;;15.00;89.30;;;;;;5051766;28;20437;-75
2022/05/04 09:34:06;;;;;;;11.57;7.73;;;15.10;88.30;;;;;;5044781;28;20434;-73
2022/05/04 09:36:37;;;;;;;12.13;7.43;;;15.10;87.30;;;;;;5051714;28;20471;-74
2022/05/04 09:44:57;;;;;;;17.63;8.40;;;15.40;89.50;;;;;;5053921;28;20424;-75
2022/05/04 09:47:23;;;;;;;14.03;8.10;;;15.50;89.20;;;;;;5053949;28;20490;-74
2022/05/04 09:49:50;;;;;;;12.80;8.07;;;15.60;87.40;;;;;;5054033;28;20440;-74
2022/05/04 09:52:21;;;;;;;14.87;8.63;;;15.80;87.30;;;;;;5054280;28;20575;-75
2022/05/04 09:54:47;;;;;;;12.40;8.20;;;16.00;86.80;;;;;;5054032;28;20524;-74
2022/05/04 09:57:14;;;;;;;12.33;8.37;;;16.10;85.00;;;;;;5052760;28;20422;-74
2022/05/04 09:59:42;;;;;;;11.30;8.57;;;16.30;83.30;;;;;;5052333;28;20230;-74
2022/05/04 10:02:09;;;;;;;15.70;9.60;;;16.70;83.10;;;;;;5054273;28;20430;-75
2022/05/04 10:04:36;;;;;;;15.77;9.00;;;17.00;81.80;;;;;;5052051;28;20833;-75
2022/05/04 10:07:03;;;;;;;13.47;8.63;;;17.50;80.20;;;;;;5053685;28;20442;-74
2022/05/04 10:09:30;;;;;;;17.23;9.00;;;18.20;79.70;;;;;;5053016;28;20829;-73
2022/05/04 10:11:58;;;;;;;13.80;9.70;;;18.80;75.70;;;;;;5052247;28;20424;-76
2022/05/04 10:14:26;;;;;;;14.10;10.60;;;19.00;72.30;;;;;;5051919;28;20422;-74
2022/05/04 10:17:18;;;;;;;12.90;8.93;;;19.10;71.40;;;;;;5052142;28;20419;-74
2022/05/04 10:20:09;;;;;;;15.90;10.20;;;19.20;73.00;;;;;;5051865;28;20447;-74
2022/05/04 10:22:56;;;;;;;14.60;10.00;;;19.70;70.50;;;;;;5049832;28;20446;-74
2022/05/04 10:25:24;;;;;;;15.73;9.90;;;20.00;70.10;;;;;;5055570;28;20435;-75
2022/05/04 10:27:52;;;;;;;15.93;11.00;;;20.00;70.20;;;;;;5059582;28;20427;-75
2022/05/04 10:30:34;;;;;;;16.80;11.57;;;20.00;69.70;;;;;;5057195;28;20953;-73
2022/05/04 10:33:01;;;;;;;16.23;11.10;;;19.70;70.80;;;;;;5058259;28;20407;-75
2022/05/04 10:35:38;;;;;;;16.73;11.77;;;19.80;69.20;;;;;;5055441;28;20850;-74
2022/05/04 10:38:10;;;;;;;14.50;10.63;;;19.80;68.90;;;;;;5055202;28;20425;-76
2022/05/04 10:40:44;;;;;;;15.37;10.20;;;19.70;69.50;;;;;;5054338;28;20965;-74
2022/05/04 10:43:18;;;;;;;11.80;8.90;;;19.60;66.60;;;;;;5054783;28;20457;-76
2022/05/04 10:45:45;;;;;;;16.60;10.87;;;19.50;66.60;;;;;;5054648;28;20438;-73
2022/05/04 10:48:20;;;;;;;14.90;8.93;;;19.70;66.40;;;;;;5048372;28;20605;-75
2022/05/04 10:50:58;;;;;;;14.60;11.10;;;19.90;65.10;;;;;;5053315;28;20455;-74
2022/05/04 10:53:24;;;;;;;14.70;10.67;;;20.20;64.10;;;;;;5054937;28;20439;-76
2022/05/04 10:56:00;;;;;;;12.90;9.60;;;20.30;64.70;;;;;;5051498;28;20764;-75
2022/05/04 10:58:49;;;;;;;13.17;8.70;;;20.40;62.60;;;;;;5051539;28;20656;-75
2022/05/04 11:01:28;;;;;;;14.97;9.63;;;20.80;63.80;;;;;;5042965;28;20428;-75
2022/05/04 11:04:04;;;;;;;10.73;7.93;;;21.20;62.00;;;;;;5050167;28;20432;-76
2022/05/04 11:06:50;;;;;;;14.10;9.00;;;21.20;62.20;;;;;;5050821;28;20455;-75
2022/05/04 11:09:18;;;;;;;12.80;8.40;;;21.20;60.60;;;;;;5043535;28;20466;-74
2022/05/04 11:11:46;;;;;;;13.37;7.53;;;21.30;61.30;;;;;;5052450;28;20464;-74
2022/05/04 11:14:14;;;;;;;11.50;8.10;;;21.70;59.30;;;;;;5052125;28;20434;-74
2022/05/04 11:16:42;;;;;;;12.77;9.83;;;22.20;59.70;;;;;;5051738;28;20465;-76
2022/05/04 11:19:08;;;;;;;8.27;7.00;;;22.40;56.50;;;;;;5051816;28;20449;-75
2022/05/04 11:21:38;;;;;;;12.53;7.70;;;22.20;56.20;;;;;;5051893;28;20421;-74
2022/05/04 11:24:06;;;;;;;12.43;7.20;;;22.20;55.80;;;;;;5052304;28;20426;-76
2022/05/04 11:26:41;;;;;;;9.90;7.20;;;22.20;56.50;;;;;;5052958;28;20434;-74
2022/05/04 11:29:14;;;;;;;12.17;7.40;;;22.10;55.80;;;;;;5047983;28;21079;-75
2022/05/04 11:31:45;;;;;;;13.90;7.53;;;21.60;57.00;;;;;;5055389;28;20496;-77
2022/05/04 11:34:14;;;;;;;12.33;6.87;;;21.90;56.90;;;;;;5054953;28;20418;-73
2022/05/04 11:36:46;;;;;;;9.20;6.50;;;22.10;56.00;;;;;;5054539;28;20485;-73
2022/05/04 11:39:25;;;;;;;10.60;6.17;;;21.80;55.70;;;;;;5054993;28;20446;-76
2022/05/04 11:41:54;;;;;;;11.17;6.60;;;21.30;56.60;;;;;;5050859;28;20448;-75
2022/05/04 11:44:22;;;;;;;11.40;6.70;;;21.10;56.80;;;;;;5053303;28;20430;-74
2022/05/04 11:46:53;;;;;;;9.00;6.40;;;21.20;58.10;;;;;;5051882;28;20426;-75
2022/05/04 11:49:21;;;;;;;10.20;7.67;;;21.60;57.00;;;;;;5052678;28;20449;-76
2022/05/04 11:51:47;;;;;;;9.13;6.00;;;21.70;57.30;;;;;;5052379;28;20492;-74
2022/05/04 11:54:13;;;;;;;9.50;6.93;;;21.60;55.00;;;;;;5052226;28;20506;-74
2022/05/04 11:56:39;;;;;;;12.20;6.67;;;21.20;55.20;;;;;;5052274;28;20477;-74
2022/05/04 11:59:07;;;;;;;7.10;5.67;;;20.90;57.00;;;;;;5050844;28;21027;-73
2022/05/04 12:01:33;;;;;;;8.63;5.73;;;20.90;57.00;;;;;;5051791;28;20228;-74
2022/05/04 12:04:00;;;;;;;10.23;6.17;;;21.00;56.10;;;;;;5055292;28;20443;-75
2022/05/04 12:06:27;;;;;;;10.83;6.33;;;21.10;56.40;;;;;;5049592;28;20501;-74
2022/05/04 12:08:54;;;;;;;11.33;6.60;;;21.50;56.90;;;;;;5054632;28;20421;-76
2022/05/04 12:11:22;;;;;;;10.60;6.70;;;21.80;55.70;;;;;;5055662;28;20430;-74
2022/05/04 12:13:49;;;;;;;9.23;7.10;;;21.80;55.20;;;;;;5052336;28;20966;-75
2022/05/04 12:16:15;;;;;;;11.30;6.67;;;21.80;54.40;;;;;;5055016;28;20473;-75
2022/05/04 12:18:41;;;;;;;9.37;7.30;;;21.40;55.20;;;;;;5055362;28;20468;-75
2022/05/04 12:21:16;;;;;;;8.87;6.60;;;21.30;55.40;;;;;;5054453;28;20453;-75
2022/05/04 12:23:47;;;;;;;10.50;6.70;;;21.40;55.30;;;;;;5053194;28;20199;-74
2022/05/04 12:26:13;;;;;;;11.70;6.37;;;21.60;55.60;;;;;;5052691;28;20420;-75
2022/05/04 12:28:40;;;;;;;7.90;5.87;;;21.80;53.60;;;;;;5052901;28;20438;-76
2022/05/04 12:33:54;;;;;;;8.77;6.60;;;22.00;51.20;;;;;;5056983;28;20433;-76
2022/05/04 12:36:23;;;;;;;10.20;6.03;;;21.90;52.50;;;;;;5073890;28;21045;-75
2022/05/04 12:38:50;;;;;;;6.80;5.30;;;21.90;52.80;;;;;;5062322;28;20422;-75
2022/05/04 12:41:18;;;;;;;9.03;5.70;;;21.80;51.80;;;;;;5057003;28;20460;-74
2022/05/04 12:43:45;;;;;;;7.77;5.07;;;21.60;52.10;;;;;;5050062;28;21240;-75
2022/05/04 12:46:13;;;;;;;8.73;6.00;;;21.40;52.50;;;;;;5049915;28;21272;-75
2022/05/04 12:48:41;;;;;;;6.90;4.30;;;21.50;52.90;;;;;;5049818;28;20465;-74
2022/05/04 12:51:09;;;;;;;7.90;5.40;;;21.80;53.40;;;;;;5049838;28;20459;-75
2022/05/04 12:53:38;;;;;;;8.17;5.00;;;22.10;51.30;;;;;;5049400;28;20940;-76
2022/05/04 12:58:53;;;;;;;7.60;5.33;;;22.00;51.00;;;;;;5048318;28;20998;-75
2022/05/04 13:01:26;;;;;;;7.73;5.00;;;22.10;51.20;;;;;;5048568;28;20924;-76
2022/05/04 13:03:52;;;;;;;7.30;5.23;;;22.30;51.20;;;;;;5048344;28;20468;-75
2022/05/04 13:06:21;;;;;;;9.43;5.10;;;22.80;51.20;;;;;;5054388;28;20512;-75
2022/05/04 13:08:48;;;;;;;9.13;5.30;;;22.80;49.50;;;;;;5055167;28;20425;-74